Airfield :







YOU CAN JOIN US ON...

 
LOGIN :

Register | Disclaimer

   EN    FR    IT 

 









Legend :    VFR   Marginal VFR   IFR   Intensive IFR   Very Intensive IFR
Visi :
Ceiling :
>= 8 km
>= 3000ft
5 to 8 km
1000 to 3000 ft
1500m to 5 km
500 to 1000 ft
800 to 1500m
200 to 500 ft
< 800m
< 200 ft
Symbols :   Thunderstorms  Fog  Heavy snow  Heavy precipitations  Wind > 20 kt






- Airport Elevation : 232 ft
- IATA code : YQM


CYQM - Greater Moncton International

CURRENT METAR :
  • 220100Z 19005KT 15SM SKC M16/M19 A3035 RMK SLP287

EXPIRED METARs :
  • 220000Z 18006KT 15SM SKC M16/M19 A3036 RMK SLP289
  • 212300Z 17004KT 15SM SKC M15/M19 A3035 RMK SLP285

TAF TAF CYQM
Valid from the 22 at 00:00 until the 23 at 00:00 UTC


212338Z 2200/2224 VRB03KT P6SM SKC
FM220200 VRB03KT P6SM FEW020 BKN120
FM220900 VRB03KT P6SM BKN050
FM221600 VRB03KT P6SM BKN030
BECMG 2216/2218 20008KT RMK NXT FCST BY 220600Z



MET'MAP, your aeronautical weather chart ! - Copyright ORBIFLY December 2007 - Disclaimer

ORBIFLY MET'MAP TEAM :

Programming & Development : Alexandra Zaïnal
Concept & original design : Baudouin d'Aumeries
Assistance for programming : Marc-Olivier Méhu
Technical & hardware support : Manuel Goepfert

Contact : metmap@orbifly.com




SOURCES & CREDITS :

   NOAA